Time;durP1;ratioP1;P1;durP2;ratioP2;P2;SDS_P1;SDS_P2;PMS_P1;PMS_P2;Temp;Humidity;BMP_temperature;BMP_pressure;BME280_temperature;BME280_humidity;BME280_pressure;Samples;Min_cycle;Max_cycle;Signal;HPM_P1;HPM_P2
2023/06/19 00:02:07;;;;;;;8.13;7.13;;;21.80;89.20;;;;;;5053732;28;20085;-84
2023/06/19 00:04:33;;;;;;;8.48;7.43;;;21.80;89.10;;;;;;5053879;28;20186;-84
2023/06/19 00:07:00;;;;;;;8.77;7.30;;;21.80;89.10;;;;;;5037358;28;20043;-84
2023/06/19 00:09:26;;;;;;;7.88;7.07;;;21.80;88.80;;;;;;5054135;28;20119;-84
2023/06/19 00:11:52;;;;;;;8.77;7.45;;;21.90;88.70;;;;;;5070938;28;20178;-84
2023/06/19 00:14:17;;;;;;;10.55;7.38;;;21.80;88.80;;;;;;5038770;28;20119;-84
2023/06/19 00:16:44;;;;;;;9.13;7.00;;;21.80;88.40;;;;;;5054595;28;20129;-84
2023/06/19 00:19:11;;;;;;;9.02;6.93;;;21.80;88.00;;;;;;5055080;28;20252;-85
2023/06/19 00:21:38;;;;;;;9.48;6.95;;;21.80;87.70;;;;;;5054840;28;20067;-84
2023/06/19 00:24:05;;;;;;;8.10;7.05;;;21.90;87.10;;;;;;5055280;28;20037;-84
2023/06/19 00:26:30;;;;;;;10.13;7.50;;;21.90;86.30;;;;;;5054142;28;20037;-85
2023/06/19 00:28:56;;;;;;;8.05;7.25;;;22.00;86.10;;;;;;5070300;28;20123;-85
2023/06/19 00:31:22;;;;;;;7.28;6.57;;;22.00;85.50;;;;;;5053480;28;20062;-84
2023/06/19 00:33:48;;;;;;;10.57;7.03;;;22.00;85.50;;;;;;5053178;28;20490;-84
2023/06/19 00:36:15;;;;;;;8.00;6.95;;;22.00;85.00;;;;;;5053214;28;20037;-84
2023/06/19 00:38:42;;;;;;;8.90;6.80;;;22.00;84.30;;;;;;5069681;28;20510;-84
2023/06/19 00:41:08;;;;;;;8.35;6.72;;;22.10;84.10;;;;;;5052744;28;20044;-84
2023/06/19 00:43:34;;;;;;;7.68;6.88;;;22.10;83.80;;;;;;5052660;28;20494;-84
2023/06/19 00:46:01;;;;;;;9.82;7.28;;;22.10;83.60;;;;;;5052869;28;20120;-84
2023/06/19 00:48:29;;;;;;;9.30;7.18;;;22.20;83.30;;;;;;5051746;28;20127;-84
2023/06/19 00:50:56;;;;;;;11.40;7.32;;;22.20;82.80;;;;;;5036944;28;20028;-84
2023/06/19 00:53:23;;;;;;;7.60;6.80;;;22.20;82.70;;;;;;5053025;28;20440;-85
2023/06/19 00:55:51;;;;;;;9.07;7.28;;;22.30;82.30;;;;;;5053160;28;20058;-84
2023/06/19 00:58:18;;;;;;;9.23;6.82;;;22.30;82.10;;;;;;5069175;28;20054;-84
2023/06/19 01:00:44;;;;;;;8.52;6.63;;;22.30;82.20;;;;;;5036404;28;20344;-84
2023/06/19 01:03:10;;;;;;;11.32;7.10;;;22.30;82.20;;;;;;5052550;28;20101;-85
2023/06/19 01:05:35;;;;;;;12.25;7.43;;;22.30;82.20;;;;;;5036028;28;20127;-84
2023/06/19 01:08:43;;;;;;;10.02;7.13;;;22.30;82.20;;;;;;5035938;28;20124;-84
2023/06/19 01:11:09;;;;;;;9.70;7.05;;;22.30;82.00;;;;;;5047851;28;20037;-87
2023/06/19 01:13:59;;;;;;;7.55;6.75;;;22.30;82.20;;;;;;5052870;28;20481;-87
2023/06/19 01:16:26;;;;;;;7.57;6.85;;;22.20;82.30;;;;;;5053039;28;20043;-87
2023/06/19 01:18:52;;;;;;;8.70;7.05;;;22.20;82.60;;;;;;5052791;28;20072;-87
2023/06/19 01:21:19;;;;;;;8.77;6.95;;;22.20;82.60;;;;;;5036535;28;20127;-87
2023/06/19 01:23:46;;;;;;;8.55;7.22;;;22.10;82.50;;;;;;5069271;28;20039;-86
2023/06/19 01:26:12;;;;;;;8.50;6.68;;;22.20;82.50;;;;;;5052776;28;20062;-86
2023/06/19 01:28:41;;;;;;;9.30;6.85;;;22.10;82.50;;;;;;5069642;28;20040;-86
2023/06/19 01:31:13;;;;;;;10.45;7.10;;;22.10;82.80;;;;;;5052192;28;20036;-87
2023/06/19 01:33:41;;;;;;;7.82;6.97;;;22.10;83.10;;;;;;5052569;28;20051;-86
2023/06/19 01:36:08;;;;;;;7.75;6.95;;;22.10;83.20;;;;;;5068950;28;20049;-86
2023/06/19 01:38:36;;;;;;;7.90;6.82;;;22.10;83.30;;;;;;5052643;28;20135;-86
2023/06/19 01:41:04;;;;;;;8.88;6.75;;;22.10;83.40;;;;;;5052079;28;20111;-86
2023/06/19 01:43:31;;;;;;;8.73;6.65;;;22.10;83.60;;;;;;5069142;28;20080;-86
2023/06/19 01:45:58;;;;;;;9.45;7.13;;;22.10;83.70;;;;;;5068897;28;20083;-87
2023/06/19 01:48:25;;;;;;;7.43;6.45;;;22.10;83.80;;;;;;5035716;28;20131;-86
2023/06/19 01:50:51;;;;;;;7.90;7.03;;;22.00;84.20;;;;;;5052206;28;20120;-87
2023/06/19 01:53:16;;;;;;;9.38;7.50;;;22.00;84.30;;;;;;5069196;28;20051;-87
2023/06/19 01:55:42;;;;;;;8.48;7.25;;;22.00;84.40;;;;;;5052443;28;20036;-84
2023/06/19 01:58:08;;;;;;;10.25;7.45;;;22.00;84.60;;;;;;5052360;28;20485;-84
2023/06/19 02:00:37;;;;;;;11.80;7.85;;;21.90;85.30;;;;;;5055655;28;20037;-83
2023/06/19 02:03:04;;;;;;;8.30;6.90;;;22.00;85.00;;;;;;5072396;28;20079;-82
2023/06/19 02:05:30;;;;;;;9.75;7.68;;;22.00;85.20;;;;;;5072876;28;20033;-82
2023/06/19 02:07:56;;;;;;;8.30;7.40;;;21.90;85.50;;;;;;5072234;28;20047;-82
2023/06/19 02:10:22;;;;;;;8.70;7.10;;;21.90;85.80;;;;;;5057909;28;20119;-82
2023/06/19 02:12:48;;;;;;;7.85;6.93;;;21.90;86.00;;;;;;5057356;28;20125;-83
2023/06/19 02:15:13;;;;;;;9.52;7.22;;;21.90;86.10;;;;;;5055640;28;20094;-83
2023/06/19 02:17:39;;;;;;;10.25;8.13;;;21.90;86.30;;;;;;5040118;28;20045;-83
2023/06/19 02:20:09;;;;;;;9.10;7.47;;;21.80;86.50;;;;;;5039914;28;20041;-82
2023/06/19 02:22:35;;;;;;;9.98;7.22;;;21.80;86.70;;;;;;5055721;28;20028;-83
2023/06/19 02:25:00;;;;;;;9.02;7.45;;;21.80;86.90;;;;;;5038900;28;20410;-82
2023/06/19 02:27:26;;;;;;;11.82;7.93;;;21.80;87.30;;;;;;5039187;28;20048;-82
2023/06/19 02:29:52;;;;;;;8.55;7.20;;;21.80;87.70;;;;;;5055660;28;20036;-82
2023/06/19 02:32:18;;;;;;;13.13;7.25;;;21.80;87.90;;;;;;5038552;28;20402;-82
2023/06/19 02:34:45;;;;;;;8.57;7.68;;;21.80;88.50;;;;;;5072047;28;20076;-82
2023/06/19 02:37:10;;;;;;;7.90;7.10;;;21.70;88.90;;;;;;5038514;28;20044;-82
2023/06/19 02:39:36;;;;;;;8.13;7.15;;;21.70;89.40;;;;;;5055383;28;20165;-82
2023/06/19 02:42:02;;;;;;;8.82;7.45;;;21.70;89.80;;;;;;5071288;28;20135;-83
2023/06/19 02:44:27;;;;;;;8.85;6.93;;;21.70;90.00;;;;;;5055304;28;20072;-82
2023/06/19 02:46:53;;;;;;;8.45;7.53;;;21.60;90.20;;;;;;5038591;28;20260;-82
2023/06/19 02:49:19;;;;;;;10.70;7.38;;;21.60;90.30;;;;;;5055490;28;20370;-82
2023/06/19 02:51:45;;;;;;;8.50;6.72;;;21.60;90.60;;;;;;5038367;28;20511;-82
2023/06/19 02:54:11;;;;;;;11.27;7.43;;;21.60;90.60;;;;;;5055087;28;20043;-82
2023/06/19 02:56:38;;;;;;;8.50;7.13;;;21.50;90.80;;;;;;5038227;28;20028;-82
2023/06/19 02:59:04;;;;;;;9.40;6.97;;;21.50;91.00;;;;;;5071620;28;20282;-82
2023/06/19 03:01:30;;;;;;;8.32;6.72;;;21.50;91.10;;;;;;5055214;28;20045;-82
2023/06/19 03:03:55;;;;;;;9.25;7.32;;;21.50;91.40;;;;;;5054877;28;20486;-82
2023/06/19 03:06:21;;;;;;;11.75;7.35;;;21.50;91.60;;;;;;5054495;28;20032;-82
2023/06/19 03:08:47;;;;;;;8.52;6.97;;;21.40;91.80;;;;;;5071385;28;20119;-82
2023/06/19 03:11:13;;;;;;;8.90;6.97;;;21.40;92.00;;;;;;5036387;28;20048;-82
2023/06/19 03:13:52;;;;;;;9.48;6.78;;;21.40;92.20;;;;;;5054515;28;20124;-81
2023/06/19 03:16:18;;;;;;;9.43;7.75;;;21.40;92.70;;;;;;5054787;28;20044;-81
2023/06/19 03:18:44;;;;;;;8.32;7.28;;;21.40;92.30;;;;;;5054526;28;20089;-81
2023/06/19 03:21:11;;;;;;;9.02;7.25;;;21.40;92.50;;;;;;5054028;28;20050;-81
2023/06/19 03:23:37;;;;;;;7.18;6.45;;;21.40;92.60;;;;;;5071144;28;20049;-81
2023/06/19 03:26:03;;;;;;;8.60;6.45;;;21.40;92.90;;;;;;5070733;28;20035;-81
2023/06/19 03:28:28;;;;;;;6.95;6.20;;;21.40;93.00;;;;;;5054404;28;20037;-81
2023/06/19 03:30:54;;;;;;;8.65;6.47;;;21.40;93.30;;;;;;5053837;28;20553;-82
2023/06/19 03:33:20;;;;;;;7.47;6.35;;;21.50;93.30;;;;;;5070299;28;20127;-81
2023/06/19 03:35:46;;;;;;;7.32;6.40;;;21.50;93.30;;;;;;5053820;28;20048;-82
2023/06/19 03:38:12;;;;;;;6.97;6.28;;;21.50;93.50;;;;;;5070684;28;20086;-82
2023/06/19 03:40:37;;;;;;;9.55;6.22;;;21.60;93.60;;;;;;5070969;28;20044;-81
2023/06/19 03:43:03;;;;;;;7.65;6.15;;;21.60;93.60;;;;;;5036786;28;20044;-81
2023/06/19 03:45:28;;;;;;;7.68;6.78;;;21.60;93.70;;;;;;5071089;28;20174;-81
2023/06/19 03:47:54;;;;;;;8.80;6.57;;;21.60;93.80;;;;;;5037162;28;20037;-81
2023/06/19 03:50:20;;;;;;;8.20;6.35;;;21.60;94.10;;;;;;5053638;28;20489;-81
2023/06/19 03:52:45;;;;;;;11.10;6.75;;;21.60;94.10;;;;;;5053545;28;20048;-81
2023/06/19 03:55:11;;;;;;;9.20;6.25;;;21.60;94.20;;;;;;5037458;28;20047;-83
2023/06/19 03:57:37;;;;;;;8.18;6.40;;;21.60;94.40;;;;;;5070687;28;20756;-82
2023/06/19 04:00:07;;;;;;;9.30;6.25;;;21.60;94.50;;;;;;5053802;28;20375;-81
2023/06/19 04:02:34;;;;;;;7.97;5.97;;;21.60;94.90;;;;;;5053437;28;20040;-81
2023/06/19 04:04:59;;;;;;;6.80;6.10;;;21.60;94.70;;;;;;5053484;28;20098;-82
2023/06/19 04:07:25;;;;;;;9.20;5.85;;;21.50;94.80;;;;;;5070482;28;20048;-81
2023/06/19 04:09:51;;;;;;;7.70;5.63;;;21.50;95.00;;;;;;5069921;28;20067;-82
2023/06/19 04:12:16;;;;;;;9.65;5.60;;;21.50;95.20;;;;;;5069862;28;20057;-81
2023/06/19 04:14:42;;;;;;;7.55;5.90;;;21.50;95.30;;;;;;5053717;28;20512;-81
2023/06/19 04:17:08;;;;;;;6.05;5.18;;;21.40;95.50;;;;;;5069881;28;20076;-81
2023/06/19 04:19:33;;;;;;;7.75;5.68;;;21.40;95.70;;;;;;5071097;28;20037;-82
2023/06/19 04:21:59;;;;;;;7.10;5.50;;;21.40;95.80;;;;;;5058301;28;20040;-81
2023/06/19 04:24:25;;;;;;;8.15;6.32;;;21.40;96.20;;;;;;5039064;28;20127;-82
2023/06/19 04:26:51;;;;;;;5.88;5.28;;;21.40;96.20;;;;;;5036860;28;20043;-82
2023/06/19 04:29:17;;;;;;;8.30;6.00;;;21.30;96.40;;;;;;5053814;28;20032;-81
2023/06/19 04:31:49;;;;;;;6.95;5.45;;;21.30;96.60;;;;;;5036528;28;20043;-82
2023/06/19 04:34:16;;;;;;;12.52;5.00;;;21.30;97.00;;;;;;5036954;28;20033;-82
2023/06/19 04:36:42;;;;;;;6.28;5.40;;;21.20;97.20;;;;;;5069766;28;20044;-82
2023/06/19 04:39:08;;;;;;;9.23;5.53;;;21.20;97.40;;;;;;5069596;28;20032;-82
2023/06/19 04:41:34;;;;;;;6.43;5.35;;;21.20;97.50;;;;;;5036161;28;20028;-82
2023/06/19 04:44:02;;;;;;;6.45;5.22;;;21.20;97.90;;;;;;5053029;28;20048;-81
2023/06/19 04:46:28;;;;;;;10.65;5.55;;;21.20;97.90;;;;;;5069820;28;20055;-82
2023/06/19 04:48:55;;;;;;;6.25;5.53;;;21.10;98.00;;;;;;5069869;28;20040;-82
2023/06/19 04:51:21;;;;;;;8.48;5.13;;;21.20;98.20;;;;;;5053086;28;20036;-82
2023/06/19 04:53:49;;;;;;;6.97;5.28;;;21.10;98.40;;;;;;5036280;28;20120;-82
2023/06/19 04:56:15;;;;;;;10.07;5.53;;;21.10;98.70;;;;;;5069803;28;20375;-81
2023/06/19 04:58:48;;;;;;;7.05;4.93;;;21.10;98.70;;;;;;5053208;28;20052;-82
2023/06/19 05:01:15;;;;;;;8.10;5.70;;;21.10;98.80;;;;;;5037423;28;20401;-82
2023/06/19 05:03:45;;;;;;;7.93;5.50;;;21.10;99.00;;;;;;5053040;28;20509;-82
2023/06/19 05:06:11;;;;;;;6.30;5.20;;;21.10;99.20;;;;;;5054875;28;20041;-81
2023/06/19 05:08:37;;;;;;;7.57;5.65;;;21.10;99.40;;;;;;5053466;28;20043;-82
2023/06/19 05:11:03;;;;;;;6.22;5.10;;;21.20;99.50;;;;;;5037116;28;20090;-83
2023/06/19 05:13:29;;;;;;;7.63;4.78;;;21.20;99.70;;;;;;5053573;28;20047;-84
2023/06/19 05:15:55;;;;;;;7.10;5.18;;;21.20;99.90;;;;;;5070475;28;20037;-82
2023/06/19 05:18:21;;;;;;;11.68;5.55;;;21.20;99.70;;;;;;5053043;28;20044;-82
2023/06/19 05:20:47;;;;;;;6.88;5.07;;;21.20;99.90;;;;;;5036957;28;20045;-81
2023/06/19 05:23:13;;;;;;;8.57;4.70;;;21.20;99.90;;;;;;5069711;28;20045;-80
2023/06/19 05:25:38;;;;;;;6.65;5.30;;;21.20;99.90;;;;;;5053080;28;20040;-81
2023/06/19 05:28:04;;;;;;;5.22;4.57;;;21.20;99.90;;;;;;5052322;28;20041;-81
2023/06/19 05:30:30;;;;;;;6.40;4.97;;;21.10;99.90;;;;;;5052713;28;20047;-81
2023/06/19 05:32:56;;;;;;;7.70;4.10;;;21.00;99.90;;;;;;5069517;28;20494;-81
2023/06/19 05:35:21;;;;;;;6.10;4.28;;;20.90;99.90;;;;;;5073489;28;20593;-81
2023/06/19 05:37:47;;;;;;;5.15;4.35;;;20.90;99.90;;;;;;5040268;28;20044;-81
2023/06/19 05:40:13;;;;;;;6.93;4.45;;;20.80;99.90;;;;;;5039796;28;20125;-81
2023/06/19 05:42:40;;;;;;;6.57;4.43;;;20.80;99.90;;;;;;5055878;28;20044;-81
2023/06/19 05:45:07;;;;;;;6.60;4.07;;;20.70;99.90;;;;;;5073154;28;20024;-80
2023/06/19 05:47:33;;;;;;;4.68;3.95;;;20.70;99.90;;;;;;5072826;28;20047;-80
2023/06/19 05:49:59;;;;;;;9.15;4.47;;;20.70;99.90;;;;;;5056732;28;20040;-81
2023/06/19 05:52:25;;;;;;;6.88;4.88;;;20.60;99.90;;;;;;5056505;28;20041;-81
2023/06/19 05:54:53;;;;;;;5.45;4.45;;;20.60;99.90;;;;;;5055898;28;20555;-81
2023/06/19 05:57:20;;;;;;;4.60;4.15;;;20.60;99.90;;;;;;5056087;28;20047;-80
2023/06/19 05:59:50;;;;;;;5.45;4.72;;;20.60;99.90;;;;;;5056097;28;20051;-80
2023/06/19 06:02:19;;;;;;;6.38;4.30;;;20.60;99.90;;;;;;5039508;28;20067;-81
2023/06/19 06:04:45;;;;;;;5.68;4.28;;;20.70;99.90;;;;;;5039573;28;20052;-80
2023/06/19 06:07:11;;;;;;;5.32;4.50;;;20.70;99.90;;;;;;5039145;28;20820;-81
2023/06/19 06:09:37;;;;;;;6.50;4.97;;;20.80;99.90;;;;;;5056196;28;20036;-80
2023/06/19 06:12:04;;;;;;;5.78;4.65;;;20.80;99.90;;;;;;5055398;28;20508;-79
2023/06/19 06:14:30;;;;;;;7.00;4.07;;;20.80;99.90;;;;;;5072566;28;20132;-80
2023/06/19 06:16:55;;;;;;;6.63;4.40;;;20.90;99.90;;;;;;5056027;28;20501;-80
2023/06/19 06:19:22;;;;;;;5.43;4.20;;;20.90;99.90;;;;;;5055899;28;20045;-80
2023/06/19 06:21:49;;;;;;;5.68;4.43;;;21.00;99.90;;;;;;5055691;28;20036;-80
2023/06/19 06:24:14;;;;;;;7.60;4.45;;;21.00;99.90;;;;;;5038929;28;20047;-81
2023/06/19 06:26:41;;;;;;;4.30;3.75;;;21.20;99.90;;;;;;5038976;28;20028;-80
2023/06/19 06:29:07;;;;;;;5.07;4.10;;;21.20;99.90;;;;;;5038913;28;20405;-81
2023/06/19 06:31:33;;;;;;;7.70;4.15;;;21.30;99.90;;;;;;5072054;28;20606;-80
2023/06/19 06:33:59;;;;;;;6.28;4.35;;;21.40;99.90;;;;;;5072119;28;20173;-81
2023/06/19 06:36:25;;;;;;;4.65;4.15;;;21.40;99.90;;;;;;5055306;28;20120;-80
2023/06/19 06:38:51;;;;;;;5.40;4.60;;;21.40;99.90;;;;;;5055202;28;20044;-80
2023/06/19 06:41:16;;;;;;;4.47;4.05;;;21.50;99.90;;;;;;5055215;28;20106;-81
2023/06/19 06:43:43;;;;;;;6.60;4.93;;;21.50;99.90;;;;;;5055140;28;20660;-80
2023/06/19 06:46:10;;;;;;;5.28;4.32;;;21.60;99.90;;;;;;5055276;28;20044;-80
2023/06/19 06:48:36;;;;;;;9.80;5.05;;;21.60;99.90;;;;;;5055046;28;20178;-80
2023/06/19 06:51:02;;;;;;;8.50;5.07;;;21.60;99.90;;;;;;5055416;28;20134;-80
2023/06/19 06:53:28;;;;;;;5.30;4.28;;;21.60;99.90;;;;;;5071867;28;20040;-80
2023/06/19 06:55:55;;;;;;;6.90;4.72;;;21.60;99.90;;;;;;5038342;28;20066;-81
2023/06/19 06:58:20;;;;;;;5.05;4.40;;;21.60;99.90;;;;;;5071616;28;20040;-80
2023/06/19 07:00:47;;;;;;;7.05;5.43;;;21.70;99.90;;;;;;5055169;28;20048;-80
2023/06/19 07:03:13;;;;;;;9.02;5.13;;;21.70;99.90;;;;;;5071347;28;20747;-82
2023/06/19 07:05:39;;;;;;;6.53;4.90;;;21.60;99.90;;;;;;5071355;28;20049;-82
2023/06/19 07:08:05;;;;;;;6.18;5.57;;;21.50;99.90;;;;;;5054952;28;20106;-80
2023/06/19 07:10:31;;;;;;;7.32;5.40;;;21.50;99.90;;;;;;5071228;28;20040;-81
2023/06/19 07:12:57;;;;;;;5.90;5.20;;;21.50;99.90;;;;;;5071358;28;20048;-81
2023/06/19 07:15:23;;;;;;;8.15;5.38;;;21.50;99.90;;;;;;5054619;28;20051;-81
2023/06/19 07:17:48;;;;;;;8.20;5.70;;;21.50;99.90;;;;;;5071315;28;20090;-80
2023/06/19 07:20:14;;;;;;;5.65;5.05;;;21.50;99.90;;;;;;5054737;28;20059;-80
2023/06/19 07:22:41;;;;;;;5.57;4.85;;;21.50;99.90;;;;;;5054369;28;20040;-80
2023/06/19 07:25:08;;;;;;;5.85;4.90;;;21.50;99.90;;;;;;5037880;28;20040;-80
2023/06/19 07:27:33;;;;;;;6.72;5.00;;;21.50;99.90;;;;;;5054371;28;20090;-81
2023/06/19 07:29:59;;;;;;;8.15;5.18;;;21.50;99.90;;;;;;5054504;28;20040;-80
2023/06/19 07:32:25;;;;;;;8.63;5.55;;;21.50;99.90;;;;;;5056851;28;20447;-80
2023/06/19 07:34:50;;;;;;;6.03;5.10;;;21.40;99.90;;;;;;5039294;28;20036;-81
2023/06/19 07:37:19;;;;;;;9.10;4.75;;;21.50;99.90;;;;;;5054830;28;20033;-81
2023/06/19 07:39:50;;;;;;;6.38;5.22;;;21.40;99.90;;;;;;5071131;28;20566;-81
2023/06/19 07:42:17;;;;;;;8.48;4.85;;;21.40;99.90;;;;;;5053991;28;20043;-81
2023/06/19 07:44:43;;;;;;;6.60;5.15;;;21.40;99.90;;;;;;5071183;28;20036;-80
2023/06/19 07:47:09;;;;;;;8.30;5.65;;;21.40;99.90;;;;;;5055888;28;20060;-81
2023/06/19 07:49:35;;;;;;;9.57;5.47;;;21.40;99.90;;;;;;5055676;28;20174;-81
2023/06/19 07:52:02;;;;;;;5.97;5.30;;;21.40;99.90;;;;;;5037528;28;20032;-80
2023/06/19 07:54:28;;;;;;;7.88;5.05;;;21.40;99.90;;;;;;5071352;28;20115;-80
2023/06/19 07:56:53;;;;;;;7.95;5.03;;;21.60;99.90;;;;;;5037166;28;20098;-80
2023/06/19 07:59:20;;;;;;;5.75;5.15;;;21.60;99.90;;;;;;5070895;28;20032;-80
2023/06/19 08:01:45;;;;;;;6.13;5.53;;;21.70;99.90;;;;;;5075198;28;20076;-80
2023/06/19 08:04:11;;;;;;;5.60;4.95;;;21.80;99.90;;;;;;5037036;28;20098;-81
2023/06/19 08:06:37;;;;;;;6.78;5.72;;;21.80;99.90;;;;;;5053582;28;20059;-81
2023/06/19 08:09:03;;;;;;;9.52;5.65;;;21.80;99.90;;;;;;5053922;28;20032;-81
2023/06/19 08:11:29;;;;;;;6.80;5.57;;;21.70;99.90;;;;;;5053778;28;20083;-80
2023/06/19 08:13:54;;;;;;;6.40;5.57;;;21.60;99.90;;;;;;5054566;28;20406;-80
2023/06/19 08:16:20;;;;;;;5.95;5.35;;;21.50;99.90;;;;;;5037310;28;20066;-80
2023/06/19 08:18:46;;;;;;;5.97;5.10;;;21.50;99.90;;;;;;5053967;28;20401;-81
2023/06/19 08:21:13;;;;;;;7.78;4.63;;;21.60;99.90;;;;;;5053655;28;20040;-81
2023/06/19 08:23:40;;;;;;;6.57;4.78;;;21.60;99.90;;;;;;5070091;28;20040;-81
2023/06/19 08:26:07;;;;;;;5.88;4.63;;;21.70;99.90;;;;;;5053067;28;20036;-81
2023/06/19 08:28:33;;;;;;;6.63;4.82;;;21.70;99.90;;;;;;5070021;28;20051;-80
2023/06/19 08:30:59;;;;;;;6.93;5.07;;;21.60;99.90;;;;;;5069890;28;20405;-81
2023/06/19 08:33:25;;;;;;;6.32;5.00;;;21.60;99.90;;;;;;5053247;28;20139;-81
2023/06/19 08:35:52;;;;;;;6.35;4.88;;;21.60;99.90;;;;;;5053940;28;20533;-81
2023/06/19 08:38:18;;;;;;;6.43;4.95;;;21.50;99.90;;;;;;5069892;28;20067;-82
2023/06/19 08:40:44;;;;;;;7.10;6.40;;;21.50;99.90;;;;;;5036465;28;20498;-81
2023/06/19 08:43:10;;;;;;;8.60;7.43;;;21.50;99.90;;;;;;5069249;28;20053;-81
2023/06/19 08:45:36;;;;;;;9.65;7.50;;;21.40;99.90;;;;;;5053081;28;20109;-82
2023/06/19 08:48:08;;;;;;;8.73;7.47;;;21.40;99.90;;;;;;5036147;28;20486;-81
2023/06/19 08:50:34;;;;;;;7.50;6.78;;;21.40;99.90;;;;;;5037291;28;20119;-81
2023/06/19 08:52:59;;;;;;;10.68;6.90;;;21.50;99.90;;;;;;5052940;28;20052;-81
2023/06/19 08:55:25;;;;;;;7.50;6.80;;;21.50;99.90;;;;;;5036197;28;20129;-81
2023/06/19 08:57:52;;;;;;;8.63;7.07;;;21.50;99.90;;;;;;5052628;28;20067;-81
2023/06/19 09:00:29;;;;;;;9.27;6.68;;;21.50;99.90;;;;;;5052732;28;20048;-81
2023/06/19 09:03:03;;;;;;;8.88;7.00;;;21.50;99.90;;;;;;5068729;28;20571;-81
2023/06/19 09:05:29;;;;;;;8.85;7.03;;;21.50;99.90;;;;;;5052837;28;20045;-82
2023/06/19 09:08:03;;;;;;;9.82;6.75;;;21.40;99.90;;;;;;5052107;28;20028;-81
2023/06/19 09:10:29;;;;;;;7.97;6.38;;;21.40;99.90;;;;;;5052464;28;20044;-82
2023/06/19 09:13:01;;;;;;;7.25;6.53;;;21.30;99.90;;;;;;5052211;28;20703;-82
2023/06/19 09:15:45;;;;;;;;;;;21.30;99.90;;;;;;5069800;28;20567;-81
2023/06/19 09:18:12;;;;;;;12.07;6.28;;;21.20;99.90;;;;;;5052335;28;19916;-82
2023/06/19 09:20:48;;;;;;;7.38;6.15;;;21.20;99.90;;;;;;5052464;28;20079;-82
2023/06/19 09:23:14;;;;;;;8.05;6.18;;;21.20;99.90;;;;;;5052292;28;20093;-82
2023/06/19 09:25:47;;;;;;;7.55;6.22;;;21.20;99.90;;;;;;5069134;28;20490;-83
2023/06/19 09:28:21;;;;;;;7.82;6.65;;;21.20;99.90;;;;;;5069050;28;20066;-81
2023/06/19 09:31:04;;;;;;;8.10;6.53;;;21.30;99.90;;;;;;5052364;28;20051;-82
2023/06/19 09:33:32;;;;;;;10.32;7.93;;;21.40;99.90;;;;;;5035950;28;20036;-81
2023/06/19 09:35:59;;;;;;;9.82;6.95;;;21.60;99.90;;;;;;5036004;28;20050;-82
2023/06/19 09:38:27;;;;;;;10.27;7.85;;;21.80;99.90;;;;;;5035468;28;20044;-82
2023/06/19 09:40:58;;;;;;;10.40;8.10;;;22.00;99.90;;;;;;5052756;28;20051;-82
2023/06/19 09:43:54;;;;;;;8.98;8.13;;;22.10;99.90;;;;;;5068554;28;20040;-82
2023/06/19 09:46:21;;;;;;;8.88;8.05;;;22.20;99.90;;;;;;5068123;28;20087;-82
2023/06/19 09:48:52;;;;;;;9.70;8.63;;;22.20;99.90;;;;;;5068679;28;20040;-82
2023/06/19 09:51:20;;;;;;;8.88;7.97;;;22.40;99.90;;;;;;5052187;28;20040;-81
2023/06/19 09:53:48;;;;;;;8.57;7.78;;;22.60;99.90;;;;;;5052082;28;20052;-82
2023/06/19 09:56:15;;;;;;;12.18;7.80;;;22.70;99.90;;;;;;5052217;28;20098;-81
2023/06/19 09:58:43;;;;;;;7.93;7.18;;;22.80;99.90;;;;;;5068870;28;20043;-82
2023/06/19 10:01:08;;;;;;;9.88;8.48;;;22.80;99.90;;;;;;5068986;28;20033;-82
2023/06/19 10:03:36;;;;;;;15.85;8.13;;;22.80;99.90;;;;;;5052718;28;20045;-82
2023/06/19 10:06:03;;;;;;;10.70;8.52;;;22.90;99.90;;;;;;5052855;28;20109;-82
2023/06/19 10:08:40;;;;;;;10.77;9.73;;;23.00;99.90;;;;;;5069879;28;20040;-82
2023/06/19 10:11:06;;;;;;;10.00;9.00;;;23.10;99.90;;;;;;5069668;28;20498;-81
2023/06/19 10:13:40;;;;;;;11.77;9.05;;;23.30;99.90;;;;;;5052658;28;20040;-81
2023/06/19 10:16:07;;;;;;;9.57;8.60;;;23.40;99.90;;;;;;5053081;28;20050;-81
2023/06/19 10:18:45;;;;;;;9.52;7.45;;;23.40;99.50;;;;;;5052737;28;20090;-82
2023/06/19 10:21:21;;;;;;;9.02;7.90;;;23.50;99.10;;;;;;5055805;28;20048;-82
2023/06/19 10:23:55;;;;;;;11.82;7.70;;;23.50;98.20;;;;;;5056657;28;20055;-81
2023/06/19 10:26:33;;;;;;;7.30;6.57;;;23.60;98.30;;;;;;5040279;28;20067;-85
2023/06/19 10:28:59;;;;;;;8.73;6.82;;;23.60;98.00;;;;;;5072824;28;20044;-82
2023/06/19 10:31:24;;;;;;;8.25;6.40;;;23.50;97.90;;;;;;5056430;28;20036;-81
2023/06/19 10:33:50;;;;;;;8.70;6.57;;;23.50;97.60;;;;;;5072573;28;20542;-83
2023/06/19 10:36:22;;;;;;;7.95;5.85;;;23.40;97.90;;;;;;5056181;28;20424;-81
2023/06/19 10:38:49;;;;;;;;;;;23.50;98.30;;;;;;5039603;28;20044;-81
2023/06/19 10:41:22;;;;;;;7.45;5.82;;;23.60;98.30;;;;;;5072443;28;19916;-81
2023/06/19 10:44:06;;;;;;;9.27;5.40;;;23.70;97.90;;;;;;5039339;28;20079;-82
2023/06/19 10:46:37;;;;;;;10.18;5.85;;;23.90;97.90;;;;;;5039571;28;20036;-81
2023/06/19 10:49:04;;;;;;;9.40;5.30;;;23.90;97.40;;;;;;5055465;28;20044;-82
2023/06/19 10:51:37;;;;;;;6.70;4.85;;;24.00;97.40;;;;;;5072522;28;20033;-81
2023/06/19 10:54:04;;;;;;;6.38;5.78;;;24.00;96.90;;;;;;5055907;28;20398;-81
2023/06/19 10:56:29;;;;;;;6.38;5.55;;;24.10;96.50;;;;;;5072323;28;20051;-81
2023/06/19 10:59:06;;;;;;;7.07;5.45;;;24.10;96.50;;;;;;5055335;28;20041;-81
2023/06/19 11:01:37;;;;;;;6.82;5.90;;;24.20;96.30;;;;;;5055705;28;20051;-81
2023/06/19 11:04:08;;;;;;;7.40;6.60;;;24.30;95.90;;;;;;5055332;28;20510;-81
2023/06/19 11:06:34;;;;;;;8.50;6.63;;;24.30;95.60;;;;;;5072384;28;20098;-81
2023/06/19 11:09:01;;;;;;;10.98;7.22;;;24.30;96.00;;;;;;5055336;28;20032;-80
2023/06/19 11:11:36;;;;;;;8.15;6.43;;;24.40;95.80;;;;;;5039577;28;20071;-80
2023/06/19 11:14:02;;;;;;;7.78;6.28;;;24.60;96.10;;;;;;5055531;28;20528;-81
2023/06/19 11:16:28;;;;;;;8.32;6.30;;;24.60;95.20;;;;;;5038407;28;20040;-80
2023/06/19 11:18:57;;;;;;;7.25;5.90;;;24.70;95.20;;;;;;5073031;28;20048;-80
2023/06/19 11:21:38;;;;;;;7.82;6.20;;;24.90;95.20;;;;;;5055298;28;20036;-81
2023/06/19 11:24:05;;;;;;;8.82;6.60;;;24.80;94.70;;;;;;5039185;28;20573;-80
2023/06/19 11:26:50;;;;;;;7.25;5.43;;;24.90;94.40;;;;;;5039847;28;20119;-81
2023/06/19 11:29:20;;;;;;;6.07;4.88;;;24.90;94.10;;;;;;5071524;28;20040;-81
2023/06/19 11:31:47;;;;;;;7.18;5.40;;;25.20;94.20;;;;;;5054060;28;20043;-82
2023/06/19 11:34:13;;;;;;;6.85;5.55;;;25.20;94.00;;;;;;5054792;28;20040;-81
2023/06/19 11:36:39;;;;;;;8.02;5.63;;;25.00;93.80;;;;;;5054998;28;20132;-82
2023/06/19 11:39:13;;;;;;;6.78;6.07;;;24.90;93.70;;;;;;5071853;28;20041;-81
2023/06/19 11:41:39;;;;;;;6.25;5.45;;;24.80;93.70;;;;;;5070473;28;20528;-80
2023/06/19 11:44:07;;;;;;;10.45;5.57;;;24.70;93.70;;;;;;5037925;28;20522;-81
2023/06/19 11:46:34;;;;;;;7.60;6.30;;;24.70;93.90;;;;;;5071216;28;20040;-80
2023/06/19 11:49:12;;;;;;;7.18;5.63;;;24.60;93.50;;;;;;5037975;28;20040;-80
2023/06/19 11:51:38;;;;;;;7.63;6.32;;;24.70;94.20;;;;;;5070967;28;20040;-80
2023/06/19 11:54:09;;;;;;;8.18;5.15;;;24.70;93.10;;;;;;5054531;28;20040;-81
2023/06/19 11:56:39;;;;;;;7.77;5.90;;;24.90;93.10;;;;;;5071028;28;20043;-81
2023/06/19 11:59:05;;;;;;;7.68;5.28;;;24.90;92.20;;;;;;5054473;28;20393;-80
2023/06/19 12:01:32;;;;;;;7.82;6.13;;;24.90;92.70;;;;;;5054348;28;20523;-81
2023/06/19 12:03:58;;;;;;;9.02;6.20;;;24.90;92.20;;;;;;5037608;28;20056;-80
2023/06/19 12:06:24;;;;;;;8.05;5.78;;;24.90;92.40;;;;;;5070836;28;20044;-82
2023/06/19 12:08:50;;;;;;;7.82;5.68;;;24.80;92.10;;;;;;5054302;28;20045;-82
2023/06/19 12:11:16;;;;;;;7.47;6.45;;;24.90;92.40;;;;;;5037412;28;20039;-81
2023/06/19 12:13:42;;;;;;;8.77;6.65;;;24.90;92.30;;;;;;5053912;28;20523;-80
2023/06/19 12:16:09;;;;;;;7.70;6.65;;;24.90;92.20;;;;;;5069998;28;20052;-81
2023/06/19 12:18:35;;;;;;;7.95;6.47;;;25.00;92.00;;;;;;5037277;28;20044;-80
2023/06/19 12:21:01;;;;;;;10.38;6.40;;;25.10;92.00;;;;;;5053231;28;20040;-82
2023/06/19 12:23:26;;;;;;;7.00;5.93;;;25.10;91.60;;;;;;5053376;28;20070;-80
2023/06/19 12:25:52;;;;;;;10.57;6.43;;;25.00;91.30;;;;;;5069846;28;20036;-80
2023/06/19 12:28:18;;;;;;;7.35;6.65;;;25.00;91.40;;;;;;5053320;28;20151;-80
2023/06/19 12:30:45;;;;;;;8.55;5.80;;;24.90;91.40;;;;;;5053078;28;20037;-80
2023/06/19 12:33:11;;;;;;;7.07;5.45;;;24.90;91.50;;;;;;5053144;28;20119;-80
2023/06/19 12:35:40;;;;;;;8.25;6.05;;;24.80;91.70;;;;;;5036478;28;20066;-80
2023/06/19 12:38:07;;;;;;;8.55;6.35;;;24.90;92.20;;;;;;5071566;28;20048;-80
2023/06/19 12:40:33;;;;;;;10.10;6.75;;;24.90;92.10;;;;;;5071276;28;20079;-80
2023/06/19 12:42:59;;;;;;;10.15;7.28;;;25.00;92.30;;;;;;5053640;28;20036;-80
2023/06/19 12:45:24;;;;;;;7.93;6.72;;;25.10;92.10;;;;;;5037697;28;20105;-80
2023/06/19 12:47:50;;;;;;;9.07;6.63;;;25.10;91.90;;;;;;5054067;28;20040;-80